Time,TemperatureF,DewpointF,PressureIn,WindDirection,WindDirectionDegrees,WindSpeedMPH,WindSpeedGustMPH,Humidity,HourlyPrecipIn,Conditions,Clouds,dailyrainin,SoftwareType,DateUTC
2013-03-02 00:01:00,24.0,22.0,29.11,North,359,0.0,-999.0,93,18.90,,,-99.99,,2013-03-02 06:01:00,
2013-03-02 00:11:00,24.0,22.0,29.11,North,359,0.0,-999.0,93,18.90,,,-99.99,,2013-03-02 06:11:00,
2013-03-02 00:21:00,24.0,22.0,29.10,ENE,72,3.0,-999.0,93,18.90,,,-99.99,,2013-03-02 06:21:00,
2013-03-02 00:32:00,24.0,22.0,29.10,ENE,72,3.0,-999.0,93,18.90,,,-99.99,,2013-03-02 06:32:00,
2013-03-02 00:42:00,24.0,22.0,29.10,ENE,72,3.0,-999.0,93,18.90,,,-99.99,,2013-03-02 06:42:00,
2013-03-02 00:52:00,23.0,21.0,29.10,ENE,58,4.0,-999.0,93,18.90,,,-99.99,,2013-03-02 06:52:00,
2013-03-02 01:01:00,23.0,21.0,29.10,ENE,58,4.0,-999.0,93,18.90,,,-99.99,,2013-03-02 07:01:00,
2013-03-02 01:11:00,23.0,21.0,29.11,North,4,0.0,-999.0,93,18.90,,,-99.99,,2013-03-02 07:11:00,
2013-03-02 01:21:00,23.0,21.0,29.11,North,4,0.0,-999.0,93,18.90,,,-99.99,,2013-03-02 07:21:00,
2013-03-02 01:32:00,23.0,21.0,29.11,North,4,0.0,-999.0,93,18.90,,,-99.99,,2013-03-02 07:32:00,
2013-03-02 01:42:00,23.0,21.0,29.11,North,4,0.0,-999.0,93,18.90,,,-99.99,,2013-03-02 07:42:00,
2013-03-02 01:52:00,23.0,21.0,29.10,ENE,69,3.0,-999.0,93,18.90,,,-99.99,,2013-03-02 07:52:00,
2013-03-02 02:01:00,23.0,21.0,29.10,ENE,69,3.0,-999.0,93,18.90,,,-99.99,,2013-03-02 08:01:00,
2013-03-02 02:11:00,23.0,21.0,29.10,ENE,69,3.0,-999.0,93,18.90,,,-99.99,,2013-03-02 08:11:00,
2013-03-02 02:21:00,23.0,22.0,29.11,North,359,0.0,-999.0,94,18.90,,,-99.99,,2013-03-02 08:21:00,
2013-03-02 02:32:00,23.0,22.0,29.11,North,359,0.0,-999.0,94,18.90,,,-99.99,,2013-03-02 08:32:00,
2013-03-02 02:43:00,23.0,22.0,29.11,North,359,0.0,-999.0,94,18.90,,,-99.99,,2013-03-02 08:43:00,
2013-03-02 02:52:00,23.0,22.0,29.10,North,359,3.0,-999.0,94,18.90,,,-99.99,,2013-03-02 08:52:00,
2013-03-02 03:01:00,23.0,22.0,29.10,North,359,3.0,-999.0,94,18.90,,,-99.99,,2013-03-02 09:01:00,
2013-03-02 03:11:00,22.0,21.0,29.10,NNW,335,0.0,-999.0,94,18.90,,,-99.99,,2013-03-02 09:11:00,
2013-03-02 03:21:00,22.0,21.0,29.10,NNW,335,0.0,-999.0,94,18.90,,,-99.99,,2013-03-02 09:21:00,
2013-03-02 03:32:00,22.0,21.0,29.10,NNW,335,0.0,-999.0,94,18.90,,,-99.99,,2013-03-02 09:32:00,
2013-03-02 03:42:00,22.0,21.0,29.10,NNW,335,0.0,-999.0,94,18.90,,,-99.99,,2013-03-02 09:42:00,
2013-03-02 03:52:00,22.0,21.0,29.09,NW,322,0.0,-999.0,94,18.90,,,-99.99,,2013-03-02 09:52:00,
2013-03-02 04:01:00,22.0,21.0,29.09,NW,322,0.0,-999.0,94,18.90,,,-99.99,,2013-03-02 10:01:00,
2013-03-02 04:15:00,21.0,20.0,29.08,North,359,0.0,-999.0,95,18.90,,,-99.99,,2013-03-02 10:15:00,
2013-03-02 04:21:00,21.0,20.0,29.08,North,359,0.0,-999.0,95,18.90,,,-99.99,,2013-03-02 10:21:00,
2013-03-02 04:32:00,21.0,20.0,29.08,North,359,0.0,-999.0,95,18.90,,,-99.99,,2013-03-02 10:32:00,
2013-03-02 04:43:00,21.0,20.0,29.08,North,359,0.0,-999.0,95,18.90,,,-99.99,,2013-03-02 10:43:00,
2013-03-02 04:52:00,20.0,19.0,29.09,North,359,0.0,-999.0,95,18.90,,,-99.99,,2013-03-02 10:52:00,
2013-03-02 05:01:00,20.0,19.0,29.09,North,359,0.0,-999.0,95,18.90,,,-99.99,,2013-03-02 11:01:00,
2013-03-02 05:11:00,20.0,19.0,29.09,North,359,0.0,-999.0,95,18.90,,,-99.99,,2013-03-02 11:11:00,
2013-03-02 05:21:00,17.0,16.0,29.09,North,359,0.0,-999.0,97,18.90,,,-99.99,,2013-03-02 11:21:00,
2013-03-02 05:32:00,17.0,16.0,29.09,North,359,0.0,-999.0,97,18.90,,,-99.99,,2013-03-02 11:32:00,
2013-03-02 05:42:00,17.0,16.0,29.09,North,359,0.0,-999.0,97,18.90,,,-99.99,,2013-03-02 11:42:00,
2013-03-02 05:52:00,16.0,15.0,29.10,NW,305,0.0,-999.0,97,18.90,,,-99.99,,2013-03-02 11:52:00,
2013-03-02 06:02:00,16.0,15.0,29.10,NW,305,0.0,-999.0,97,18.90,,,-99.99,,2013-03-02 12:02:00,
2013-03-02 06:11:00,16.0,15.0,29.10,NW,305,0.0,-999.0,97,18.90,,,-99.99,,2013-03-02 12:11:00,
2013-03-02 06:21:00,14.0,14.0,29.10,WNW,302,0.0,-999.0,98,18.90,,,-99.99,,2013-03-02 12:21:00,
2013-03-02 06:33:00,14.0,14.0,29.10,WNW,302,0.0,-999.0,98,18.90,,,-99.99,,2013-03-02 12:33:00,
2013-03-02 06:43:00,14.0,14.0,29.10,WNW,302,0.0,-999.0,98,18.90,,,-99.99,,2013-03-02 12:43:00,
2013-03-02 06:53:00,14.0,14.0,29.09,WNW,302,0.0,-999.0,98,18.90,,,-99.99,,2013-03-02 12:53:00,
2013-03-02 07:01:00,14.0,14.0,29.09,WNW,302,0.0,-999.0,98,18.90,,,-99.99,,2013-03-02 13:01:00,
2013-03-02 07:11:00,14.0,14.0,29.09,WNW,302,0.0,-999.0,98,18.90,,,-99.99,,2013-03-02 13:11:00,
2013-03-02 07:21:00,14.0,14.0,29.10,WNW,302,0.0,-999.0,99,18.90,,,-99.99,,2013-03-02 13:21:00,
2013-03-02 07:32:00,14.0,14.0,29.10,WNW,302,0.0,-999.0,99,18.90,,,-99.99,,2013-03-02 13:32:00,
2013-03-02 07:42:00,14.0,14.0,29.10,WNW,302,0.0,-999.0,99,18.90,,,-99.99,,2013-03-02 13:42:00,
2013-03-02 07:52:00,14.0,14.0,29.10,WNW,302,0.0,-999.0,99,18.90,,,-99.99,,2013-03-02 13:52:00,
2013-03-02 08:01:00,14.0,14.0,29.10,WNW,302,0.0,-999.0,99,18.90,,,-99.99,,2013-03-02 14:01:00,
2013-03-02 08:11:00,14.0,14.0,29.10,WNW,302,0.0,-999.0,99,18.90,,,-99.99,,2013-03-02 14:11:00,
2013-03-02 08:21:00,15.0,15.0,29.11,WNW,291,0.0,-999.0,99,18.90,,,-99.99,,2013-03-02 14:21:00,
2013-03-02 08:32:00,15.0,15.0,29.11,WNW,291,0.0,-999.0,99,18.90,,,-99.99,,2013-03-02 14:32:00,
2013-03-02 08:42:00,15.0,15.0,29.11,WNW,291,0.0,-999.0,99,18.90,,,-99.99,,2013-03-02 14:42:00,
2013-03-02 08:52:00,16.0,16.0,29.09,WNW,291,0.0,-999.0,99,18.90,,,-99.99,,2013-03-02 14:52:00,
2013-03-02 09:02:00,16.0,16.0,29.09,WNW,291,0.0,-999.0,99,18.90,,,-99.99,,2013-03-02 15:02:00,
2013-03-02 09:11:00,16.0,16.0,29.09,WNW,291,0.0,-999.0,99,18.90,,,-99.99,,2013-03-02 15:11:00,
2013-03-02 09:21:00,19.0,19.0,29.10,WNW,291,0.0,-999.0,99,18.90,,,-99.99,,2013-03-02 15:21:00,
2013-03-02 09:32:00,19.0,19.0,29.10,WNW,291,0.0,-999.0,99,18.90,,,-99.99,,2013-03-02 15:32:00,
2013-03-02 09:42:00,19.0,19.0,29.10,WNW,291,0.0,-999.0,99,18.90,,,-99.99,,2013-03-02 15:42:00,
2013-03-02 09:52:00,20.0,20.0,29.10,WNW,291,0.0,-999.0,98,18.90,,,-99.99,,2013-03-02 15:52:00,
2013-03-02 10:01:00,20.0,20.0,29.10,WNW,291,0.0,-999.0,98,18.90,,,-99.99,,2013-03-02 16:01:00,
2013-03-02 10:11:00,20.0,20.0,29.10,WNW,291,0.0,-999.0,98,18.90,,,-99.99,,2013-03-02 16:11:00,
2013-03-02 10:21:00,22.0,21.0,29.08,ESE,115,0.0,-999.0,97,18.90,,,-99.99,,2013-03-02 16:21:00,
2013-03-02 10:32:00,22.0,21.0,29.08,ESE,115,0.0,-999.0,97,18.90,,,-99.99,,2013-03-02 16:32:00,
2013-03-02 10:42:00,22.0,21.0,29.08,ESE,115,0.0,-999.0,97,18.90,,,-99.99,,2013-03-02 16:42:00,
2013-03-02 10:52:00,23.0,22.0,29.08,ESE,107,0.0,-999.0,96,18.90,,,-99.99,,2013-03-02 16:52:00,
2013-03-02 11:01:00,23.0,22.0,29.08,ESE,107,0.0,-999.0,96,18.90,,,-99.99,,2013-03-02 17:01:00,
2013-03-02 11:11:00,25.0,24.0,29.06,SSW,211,0.0,-999.0,94,18.90,,,-99.99,,2013-03-02 17:11:00,
2013-03-02 11:21:00,25.0,24.0,29.06,SSW,211,0.0,-999.0,94,18.90,,,-99.99,,2013-03-02 17:21:00,
2013-03-02 11:32:00,25.0,24.0,29.06,SSW,211,0.0,-999.0,94,18.90,,,-99.99,,2013-03-02 17:32:00,
2013-03-02 11:42:00,25.0,24.0,29.06,SSW,211,0.0,-999.0,94,18.90,,,-99.99,,2013-03-02 17:42:00,
2013-03-02 11:52:00,26.0,24.0,29.06,SSW,198,0.0,-999.0,93,18.90,,,-99.99,,2013-03-02 17:52:00,
2013-03-02 12:01:00,26.0,24.0,29.06,SSW,198,0.0,-999.0,93,18.90,,,-99.99,,2013-03-02 18:01:00,
2013-03-02 12:11:00,26.0,24.0,29.06,SSW,198,0.0,-999.0,93,18.90,,,-99.99,,2013-03-02 18:11:00,
2013-03-02 12:22:00,28.0,26.0,29.05,WSW,255,0.0,-999.0,91,18.90,,,-99.99,,2013-03-02 18:22:00,
2013-03-02 12:32:00,28.0,26.0,29.05,WSW,255,0.0,-999.0,91,18.90,,,-99.99,,2013-03-02 18:32:00,
2013-03-02 12:42:00,28.0,26.0,29.05,WSW,255,0.0,-999.0,91,18.90,,,-99.99,,2013-03-02 18:42:00,
2013-03-02 12:52:00,29.0,26.0,29.05,SW,235,0.0,-999.0,90,18.90,,,-99.99,,2013-03-02 18:52:00,
2013-03-02 13:01:00,29.0,26.0,29.05,SW,235,0.0,-999.0,90,18.90,,,-99.99,,2013-03-02 19:01:00,
2013-03-02 13:11:00,29.0,26.0,29.05,SW,235,0.0,-999.0,90,18.90,,,-99.99,,2013-03-02 19:11:00,
2013-03-02 13:21:00,30.0,27.0,29.02,SE,146,0.0,-999.0,89,18.90,,,-99.99,,2013-03-02 19:21:00,
2013-03-02 13:32:00,30.0,27.0,29.02,SE,146,0.0,-999.0,89,18.90,,,-99.99,,2013-03-02 19:32:00,
2013-03-02 13:42:00,30.0,27.0,29.02,SE,146,0.0,-999.0,89,18.90,,,-99.99,,2013-03-02 19:42:00,
2013-03-02 13:52:00,29.0,26.0,29.01,SSE,150,6.0,-999.0,90,18.90,,,-99.99,,2013-03-02 19:52:00,
2013-03-02 14:01:00,29.0,26.0,29.01,SSE,150,6.0,-999.0,90,18.90,,,-99.99,,2013-03-02 20:01:00,
2013-03-02 14:11:00,29.0,26.0,29.01,SSE,150,6.0,-999.0,90,18.90,,,-99.99,,2013-03-02 20:11:00,
2013-03-02 14:21:00,31.0,28.0,29.00,South,187,3.0,-999.0,87,18.90,,,-99.99,,2013-03-02 20:21:00,
2013-03-02 14:32:00,31.0,28.0,29.00,South,187,3.0,-999.0,87,18.90,,,-99.99,,2013-03-02 20:32:00,
2013-03-02 14:42:00,31.0,28.0,29.00,South,187,3.0,-999.0,87,18.90,,,-99.99,,2013-03-02 20:42:00,
2013-03-02 14:52:00,32.0,28.0,28.99,South,187,7.0,-999.0,86,18.90,,,-99.99,,2013-03-02 20:52:00,
2013-03-02 15:02:00,32.0,28.0,28.99,South,187,7.0,-999.0,86,18.90,,,-99.99,,2013-03-02 21:02:00,
2013-03-02 15:11:00,32.0,28.0,28.99,South,187,7.0,-999.0,86,18.90,,,-99.99,,2013-03-02 21:11:00,
2013-03-02 15:22:00,33.0,28.0,28.97,SW,231,6.0,-999.0,82,18.90,,,-99.99,,2013-03-02 21:22:00,
2013-03-02 15:32:00,33.0,28.0,28.97,SW,231,6.0,-999.0,82,18.90,,,-99.99,,2013-03-02 21:32:00,
2013-03-02 15:42:00,33.0,28.0,28.97,SW,231,6.0,-999.0,82,18.90,,,-99.99,,2013-03-02 21:42:00,
2013-03-02 15:52:00,33.0,28.0,28.97,SSW,194,9.0,-999.0,82,18.90,,,-99.99,,2013-03-02 21:52:00,
2013-03-02 16:01:00,33.0,28.0,28.97,SSW,194,9.0,-999.0,82,18.90,,,-99.99,,2013-03-02 22:01:00,
2013-03-02 16:11:00,33.0,28.0,28.97,SSW,194,9.0,-999.0,82,18.90,,,-99.99,,2013-03-02 22:11:00,
2013-03-02 16:21:00,34.0,29.0,28.96,SSE,165,7.0,-999.0,82,18.90,,,-99.99,,2013-03-02 22:21:00,
2013-03-02 16:32:00,34.0,29.0,28.96,SSE,165,7.0,-999.0,82,18.90,,,-99.99,,2013-03-02 22:32:00,
2013-03-02 16:42:00,34.0,29.0,28.96,SSE,165,7.0,-999.0,82,18.90,,,-99.99,,2013-03-02 22:42:00,
2013-03-02 16:52:00,34.0,29.0,28.95,SSE,160,9.0,-999.0,83,18.90,,,-99.99,,2013-03-02 22:52:00,
2013-03-02 17:01:00,34.0,29.0,28.95,SSE,160,9.0,-999.0,83,18.90,,,-99.99,,2013-03-02 23:01:00,
2013-03-02 17:11:00,35.0,31.0,28.93,SE,139,8.0,-999.0,84,18.90,,,-99.99,,2013-03-02 23:11:00,
2013-03-02 17:21:00,35.0,31.0,28.93,SE,139,8.0,-999.0,84,18.90,,,-99.99,,2013-03-02 23:21:00,
2013-03-02 17:32:00,35.0,31.0,28.93,SE,139,8.0,-999.0,84,18.90,,,-99.99,,2013-03-02 23:32:00,
2013-03-02 17:42:00,35.0,31.0,28.93,SE,139,8.0,-999.0,84,18.90,,,-99.99,,2013-03-02 23:42:00,
2013-03-02 17:52:00,35.0,32.0,28.93,SE,142,8.0,-999.0,87,18.90,,,-99.99,,2013-03-02 23:52:00,
2013-03-02 18:02:00,35.0,32.0,28.93,SE,142,8.0,-999.0,87,18.90,,,-99.99,,2013-03-03 00:02:00,
2013-03-02 18:11:00,35.0,32.0,28.93,SE,142,8.0,-999.0,87,18.90,,,-99.99,,2013-03-03 00:11:00,
2013-03-02 18:22:00,34.0,31.0,28.92,SSE,150,8.0,-999.0,88,18.90,,,-99.99,,2013-03-03 00:22:00,
2013-03-02 18:32:00,34.0,31.0,28.92,SSE,150,8.0,-999.0,88,18.90,,,-99.99,,2013-03-03 00:32:00,
2013-03-02 18:42:00,34.0,31.0,28.92,SSE,150,8.0,-999.0,88,18.90,,,-99.99,,2013-03-03 00:42:00,
2013-03-02 18:52:00,34.0,31.0,28.92,South,170,11.0,-999.0,89,18.90,,,-99.99,,2013-03-03 00:52:00,
2013-03-02 19:01:00,34.0,31.0,28.92,South,170,11.0,-999.0,89,18.90,,,-99.99,,2013-03-03 01:01:00,
2013-03-02 19:11:00,34.0,31.0,28.92,South,170,11.0,-999.0,89,18.90,,,-99.99,,2013-03-03 01:11:00,
2013-03-02 19:21:00,33.0,31.0,28.91,SSE,163,7.0,-999.0,91,18.90,,,-99.99,,2013-03-03 01:21:00,
2013-03-02 19:32:00,33.0,31.0,28.91,SSE,163,7.0,-999.0,91,18.90,,,-99.99,,2013-03-03 01:32:00,
2013-03-02 19:42:00,33.0,31.0,28.91,SSE,163,7.0,-999.0,91,18.90,,,-99.99,,2013-03-03 01:42:00,
2013-03-02 19:52:00,33.0,31.0,28.91,SE,143,9.0,-999.0,91,18.90,,,-99.99,,2013-03-03 01:52:00,
2013-03-02 20:01:00,33.0,31.0,28.91,SE,143,9.0,-999.0,91,18.90,,,-99.99,,2013-03-03 02:01:00,
2013-03-02 20:11:00,32.0,30.0,28.90,SSE,166,6.0,-999.0,91,18.90,,,-99.99,,2013-03-03 02:11:00,
2013-03-02 20:21:00,32.0,30.0,28.90,SSE,166,6.0,-999.0,91,18.90,,,-99.99,,2013-03-03 02:21:00,
2013-03-02 20:32:00,32.0,30.0,28.90,SSE,166,6.0,-999.0,91,18.90,,,-99.99,,2013-03-03 02:32:00,
2013-03-02 20:42:00,32.0,30.0,28.90,SSE,166,6.0,-999.0,91,18.90,,,-99.99,,2013-03-03 02:42:00,
2013-03-02 20:52:00,32.0,30.0,28.90,South,184,6.0,-999.0,92,18.90,,,-99.99,,2013-03-03 02:52:00,
2013-03-02 21:01:00,32.0,30.0,28.90,South,184,6.0,-999.0,92,18.90,,,-99.99,,2013-03-03 03:01:00,
2013-03-02 21:11:00,32.0,30.0,28.90,South,184,6.0,-999.0,92,18.90,,,-99.99,,2013-03-03 03:11:00,
2013-03-02 21:21:00,32.0,30.0,28.89,SSW,194,10.0,-999.0,92,18.90,,,-99.99,,2013-03-03 03:21:00,
2013-03-02 21:32:00,32.0,30.0,28.89,SSW,194,10.0,-999.0,92,18.90,,,-99.99,,2013-03-03 03:32:00,
2013-03-02 21:42:00,32.0,30.0,28.89,SSW,194,10.0,-999.0,92,18.90,,,-99.99,,2013-03-03 03:42:00,
2013-03-02 21:52:00,32.0,30.0,28.89,SSW,194,7.0,-999.0,91,18.90,,,-99.99,,2013-03-03 03:52:00,
2013-03-02 22:01:00,32.0,30.0,28.89,SSW,194,7.0,-999.0,91,18.90,,,-99.99,,2013-03-03 04:01:00,
2013-03-02 22:11:00,32.0,30.0,28.89,SSW,194,7.0,-999.0,91,18.90,,,-99.99,,2013-03-03 04:11:00,
2013-03-02 22:21:00,32.0,30.0,28.87,South,172,9.0,-999.0,92,18.90,,,-99.99,,2013-03-03 04:21:00,
2013-03-02 22:32:00,32.0,30.0,28.87,South,172,9.0,-999.0,92,18.90,,,-99.99,,2013-03-03 04:32:00,
2013-03-02 22:42:00,32.0,30.0,28.87,South,172,9.0,-999.0,92,18.90,,,-99.99,,2013-03-03 04:42:00,
2013-03-02 22:52:00,32.0,30.0,28.87,SSE,162,7.0,-999.0,93,18.90,,,-99.99,,2013-03-03 04:52:00,
2013-03-02 23:01:00,32.0,30.0,28.87,SSE,162,7.0,-999.0,93,18.90,,,-99.99,,2013-03-03 05:01:00,
2013-03-02 23:11:00,32.0,30.0,28.87,SSE,162,7.0,-999.0,93,18.90,,,-99.99,,2013-03-03 05:11:00,
2013-03-02 23:22:00,32.0,30.0,28.87,South,176,6.0,-999.0,94,18.90,,,-99.99,,2013-03-03 05:22:00,
2013-03-02 23:32:00,32.0,30.0,28.87,South,176,6.0,-999.0,94,18.90,,,-99.99,,2013-03-03 05:32:00,
2013-03-02 23:42:00,32.0,30.0,28.87,South,176,6.0,-999.0,94,18.90,,,-99.99,,2013-03-03 05:42:00,
2013-03-02 23:52:00,31.0,29.0,28.86,SSE,163,7.0,-999.0,94,18.90,,,-99.99,,2013-03-03 05:52:00,